Time;durP1;ratioP1;P1;durP2;ratioP2;P2;SDS_P1;SDS_P2;PMS_P1;PMS_P2;Temp;Humidity;BMP_temperature;BMP_pressure;BME280_temperature;BME280_humidity;BME280_pressure;Samples;Min_cycle;Max_cycle;Signal;HPM_P1;HPM_P2
2022/03/25 00:00:01;;;;;;;;;53.50;38.50;;;;;16.79;28.15;102250.72;5098778;27;45865;-73
2022/03/25 00:02:27;;;;;;;;;54.00;39.25;;;;;16.80;28.00;102255.16;5098834;27;45288;-73
2022/03/25 00:04:52;;;;;;;;;50.25;38.75;;;;;16.81;27.91;102254.25;5098425;27;45328;-69
2022/03/25 00:07:18;;;;;;;;;55.50;39.75;;;;;16.86;28.01;102256.91;5098845;27;45338;-71
2022/03/25 00:09:43;;;;;;;;;52.50;40.00;;;;;16.80;28.04;102257.81;5098312;27;45444;-70
2022/03/25 00:12:09;;;;;;;;;55.25;39.00;;;;;16.78;27.26;102253.38;5097655;27;45586;-70
2022/03/25 00:14:35;;;;;;;;;52.25;38.50;;;;;16.78;27.56;102261.31;5079623;27;45595;-71
2022/03/25 00:17:01;;;;;;;;;39.75;35.50;;;;;16.79;27.53;102260.44;5098479;27;45441;-71
2022/03/25 00:19:27;;;;;;;;;47.75;36.75;;;;;16.79;27.52;102263.97;5079822;27;46728;-71
2022/03/25 00:21:53;;;;;;;;;49.50;38.50;;;;;16.82;27.93;102258.66;5080234;27;45377;-69
2022/03/25 00:24:27;;;;;;;;;51.00;38.50;;;;;16.84;27.85;102256.03;5080481;27;45458;-71
2022/03/25 00:27:14;;;;;;;;;50.00;39.25;;;;;16.77;27.56;102249.81;5080188;27;45545;-70
2022/03/25 00:29:41;;;;;;;;;51.00;40.50;;;;;16.81;27.72;102261.31;5097684;27;45564;-68
2022/03/25 00:32:09;;;;;;;;;47.25;36.25;;;;;16.85;27.63;102258.69;5097898;27;45448;-71
2022/03/25 00:34:38;;;;;;;;;34.00;26.25;;;;;16.88;27.56;102255.16;5098122;27;45326;-70
2022/03/25 00:37:04;;;;;;;;;49.75;37.50;;;;;16.90;27.77;102254.25;5097923;27;45349;-70
2022/03/25 00:39:35;;;;;;;;;49.00;38.25;;;;;16.90;27.35;102243.69;5097383;27;45517;-72
2022/03/25 00:42:01;;;;;;;;;52.50;37.75;;;;;16.97;27.31;102256.94;5079000;27;45535;-71
2022/03/25 00:44:26;;;;;;;;;49.25;37.00;;;;;16.99;27.39;102260.44;5097375;27;45347;-70
2022/03/25 00:46:52;;;;;;;;;45.00;37.50;;;;;16.97;27.55;102241.03;5098524;27;45326;-70
2022/03/25 00:49:18;;;;;;;;;39.00;34.25;;;;;16.99;27.32;102256.03;5103487;27;46318;-66
2022/03/25 00:51:44;;;;;;;;;45.25;35.75;;;;;16.97;27.31;102252.50;5102950;27;45367;-68
2022/03/25 00:54:10;;;;;;;;;51.00;39.75;;;;;16.81;27.37;102242.81;5104499;27;45343;-69
2022/03/25 00:56:35;;;;;;;;;48.50;34.50;;;;;16.87;27.60;102259.56;5102803;27;45342;-70
2022/03/25 00:59:01;;;;;;;;;48.25;40.00;;;;;16.79;27.37;102252.50;5101140;27;45515;-69
2022/03/25 01:01:27;;;;;;;;;59.25;42.50;;;;;16.76;27.67;102256.00;5101184;27;45398;-67
2022/03/25 01:03:52;;;;;;;;;50.75;40.25;;;;;16.70;27.64;102251.59;5101079;27;45442;-69
2022/03/25 01:06:18;;;;;;;;;53.75;38.50;;;;;16.72;27.54;102255.09;5101323;27;45353;-68
2022/03/25 01:08:44;;;;;;;;;47.00;36.50;;;;;16.74;27.51;102257.75;5100620;27;45695;-68
2022/03/25 01:11:10;;;;;;;;;46.00;34.25;;;;;16.69;27.73;102248.94;5100539;27;45445;-67
2022/03/25 01:13:36;;;;;;;;;46.50;37.00;;;;;16.72;27.50;102248.94;5100712;27;45471;-68
2022/03/25 01:16:09;;;;;;;;;51.25;39.75;;;;;16.64;27.97;102253.34;5100695;27;45337;-71
2022/03/25 01:18:35;;;;;;;;;43.50;35.25;;;;;16.57;27.86;102236.59;5081887;27;46990;-71
2022/03/25 01:21:00;;;;;;;;;55.50;41.75;;;;;16.43;28.19;102239.19;5082205;27;45464;-68
2022/03/25 01:23:27;;;;;;;;;52.50;40.75;;;;;16.49;27.67;102243.59;5082201;27;45482;-70
2022/03/25 01:25:53;;;;;;;;;57.50;41.75;;;;;16.49;28.00;102244.50;5101005;27;45582;-68
2022/03/25 01:28:19;;;;;;;;;47.50;37.50;;;;;16.55;29.91;102248.91;5100478;27;46608;-71
2022/03/25 01:30:45;;;;;;;;;50.25;39.00;;;;;16.58;28.45;102235.69;5100175;27;45511;-68
2022/03/25 01:33:17;;;;;;;;;51.75;36.00;;;;;16.60;28.20;102231.28;5082009;27;45385;-71
2022/03/25 01:35:42;;;;;;;;;49.75;38.00;;;;;16.66;28.30;102238.38;5100608;27;45603;-69
2022/03/25 01:38:08;;;;;;;;;45.50;38.75;;;;;16.69;28.20;102233.06;5100191;27;46047;-71
2022/03/25 01:40:34;;;;;;;;;55.00;39.50;;;;;16.71;28.32;102234.81;5100145;27;45702;-69
2022/03/25 01:42:59;;;;;;;;;47.50;37.75;;;;;16.72;27.75;102231.28;5100339;27;45333;-71
2022/03/25 01:45:34;;;;;;;;;46.50;34.50;;;;;16.68;28.16;102215.41;5100594;27;45292;-71
2022/03/25 01:48:01;;;;;;;;;51.00;37.50;;;;;16.79;28.35;102232.22;5100525;27;46397;-72
2022/03/25 01:50:27;;;;;;;;;51.25;38.00;;;;;16.78;28.13;102217.19;5100176;27;45266;-70
2022/03/25 01:52:53;;;;;;;;;49.00;38.00;;;;;16.72;28.07;102209.25;5099887;27;45321;-69
2022/03/25 01:55:24;;;;;;;;;53.50;39.00;;;;;16.75;28.49;102215.44;5100315;27;45882;-73
2022/03/25 01:57:50;;;;;;;;;49.75;35.75;;;;;16.82;28.54;102223.38;5100028;27;45405;-71
2022/03/25 02:00:18;;;;;;;;;50.75;41.50;;;;;16.81;28.24;102225.16;5099192;27;45441;-71
2022/03/25 02:02:48;;;;;;;;;53.00;41.00;;;;;16.76;28.14;102216.31;5099574;27;45332;-71
2022/03/25 02:05:15;;;;;;;;;52.50;38.25;;;;;16.80;28.73;102228.69;5081848;27;45466;-70
2022/03/25 02:07:40;;;;;;;;;53.75;38.75;;;;;16.75;28.42;102220.72;5100198;27;45719;-71
2022/03/25 02:10:06;;;;;;;;;50.50;38.75;;;;;16.67;28.60;102200.44;5099874;27;45379;-70
2022/03/25 02:12:39;;;;;;;;;50.75;39.50;;;;;16.59;28.55;102187.22;5100059;27;45348;-72
2022/03/25 02:15:05;;;;;;;;;51.00;38.50;;;;;16.78;28.88;102225.13;5099893;27;45543;-71
2022/03/25 02:17:32;;;;;;;;;51.75;41.75;;;;;16.70;28.52;102206.63;5099379;27;46090;-71
2022/03/25 02:19:58;;;;;;;;;53.00;39.75;;;;;16.73;28.49;102227.78;5099347;27;45390;-71
2022/03/25 02:22:24;;;;;;;;;55.25;40.25;;;;;16.71;28.75;102231.31;5099846;27;45377;-71
2022/03/25 02:24:50;;;;;;;;;50.00;36.50;;;;;16.46;28.59;102188.94;5081565;27;45332;-70
2022/03/25 02:27:16;;;;;;;;;57.50;40.75;;;;;16.63;29.01;102225.09;5100121;27;45371;-70
2022/03/25 02:29:44;;;;;;;;;52.25;41.50;;;;;16.40;28.99;102196.91;5100022;27;46047;-72
2022/03/25 02:32:10;;;;;;;;;51.00;37.25;;;;;16.38;28.83;102214.50;5099252;27;45433;-72
2022/03/25 02:34:39;;;;;;;;;52.25;40.50;;;;;16.22;29.10;102189.81;5099959;27;45965;-72
2022/03/25 02:37:06;;;;;;;;;51.50;41.25;;;;;16.16;29.12;102186.25;5099456;27;46338;-72
2022/03/25 02:39:31;;;;;;;;;56.50;40.50;;;;;15.97;29.48;102145.69;5099188;27;45489;-71
2022/03/25 02:41:57;;;;;;;;;47.00;39.25;;;;;16.41;28.99;102224.22;5099430;27;45310;-69
2022/03/25 02:44:23;;;;;;;;;46.25;38.00;;;;;16.33;29.27;102211.00;5099794;27;45392;-70
2022/03/25 02:46:48;;;;;;;;;47.50;36.00;;;;;16.40;29.31;102227.75;5099115;27;45948;-70
2022/03/25 02:49:14;;;;;;;;;47.75;38.00;;;;;16.26;29.07;102203.94;5099267;27;45433;-70
2022/03/25 02:51:40;;;;;;;;;53.75;39.75;;;;;16.37;29.21;102223.31;5115310;27;45432;-71
2022/03/25 02:54:06;;;;;;;;;51.00;38.50;;;;;16.38;29.17;102229.50;5099458;27;45468;-71
2022/03/25 02:56:40;;;;;;;;;53.50;39.00;;;;;16.24;29.09;102205.69;5080373;27;48005;-71
2022/03/25 02:59:05;;;;;;;;;50.25;40.00;;;;;16.33;29.36;102216.28;5098935;27;45402;-70
2022/03/25 03:01:33;;;;;;;;;51.50;38.25;;;;;16.45;29.10;102239.22;5099128;27;45414;-71
2022/03/25 03:03:59;;;;;;;;;52.75;41.25;;;;;16.37;28.83;102239.19;5099321;27;45211;-68
2022/03/25 03:06:25;;;;;;;;;48.75;40.75;;;;;15.97;29.37;102162.47;5099200;27;46417;-70
2022/03/25 03:08:51;;;;;;;;;54.25;40.00;;;;;16.33;28.93;102230.38;5099263;27;45519;-72
2022/03/25 03:11:18;;;;;;;;;51.75;38.75;;;;;16.14;29.24;102211.84;5098482;27;45404;-69
2022/03/25 03:13:44;;;;;;;;;52.75;40.75;;;;;16.21;29.43;102229.47;5099336;27;46041;-70
2022/03/25 03:16:10;;;;;;;;;53.50;41.75;;;;;16.19;29.14;102223.28;5098288;27;45579;-71
2022/03/25 03:18:35;;;;;;;;;55.50;40.25;;;;;16.20;29.07;102236.50;5098196;27;45323;-70
2022/03/25 03:21:01;;;;;;;;;54.00;42.00;;;;;16.16;29.50;102226.81;5098448;27;45248;-71
2022/03/25 03:23:34;;;;;;;;;54.50;43.75;;;;;16.10;29.61;102232.94;5099165;27;45465;-72
2022/03/25 03:26:03;;;;;;;;;51.50;39.75;;;;;16.00;29.50;102227.66;5012019;27;47632;-71
2022/03/25 03:28:28;;;;;;;;;51.50;41.75;;;;;15.95;29.51;102230.28;4995248;27;45389;-71
2022/03/25 03:31:01;;;;;;;;;52.25;40.50;;;;;16.00;30.43;102231.16;4994884;27;45438;-71
2022/03/25 03:33:32;;;;;;;;;54.25;40.50;;;;;15.87;29.93;102211.75;4995799;27;45463;-69
2022/03/25 03:35:58;;;;;;;;;57.25;42.75;;;;;15.86;29.79;102219.66;4995158;27;46495;-72
2022/03/25 03:38:24;;;;;;;;;52.50;40.50;;;;;15.39;29.99;102134.03;4994963;27;45400;-72
2022/03/25 03:40:50;;;;;;;;;60.50;40.75;;;;;15.87;29.93;102226.69;4994941;27;45485;-71
2022/03/25 03:43:16;;;;;;;;;54.50;41.25;;;;;15.58;29.84;102179.00;4995269;27;45388;-72
2022/03/25 03:45:41;;;;;;;;;54.50;39.25;;;;;15.58;30.08;102177.25;4994880;28;46691;-70
2022/03/25 03:48:07;;;;;;;;;58.00;40.75;;;;;15.87;29.90;102219.69;4994677;27;45317;-71
2022/03/25 03:50:33;;;;;;;;;51.00;39.25;;;;;15.87;29.70;102217.03;4995100;27;45315;-71
2022/03/25 03:52:59;;;;;;;;;55.25;39.75;;;;;15.71;29.92;102186.16;4995359;27;45426;-70
2022/03/25 03:55:25;;;;;;;;;55.75;41.75;;;;;15.80;29.88;102207.31;4994879;27;46062;-72
2022/03/25 03:57:50;;;;;;;;;50.25;35.50;;;;;15.93;29.86;102228.50;4995850;27;45326;-71
2022/03/25 04:00:24;;;;;;;;;51.25;41.25;;;;;15.88;29.85;102218.78;4994590;27;45660;-71
2022/03/25 04:02:50;;;;;;;;;51.75;41.00;;;;;15.71;29.62;102195.81;4994845;28;45274;-71
2022/03/25 04:05:16;;;;;;;;;52.00;40.00;;;;;15.75;29.98;102218.72;4976315;27;47133;-71
2022/03/25 04:07:47;;;;;;;;;50.25;38.50;;;;;15.79;30.02;102221.41;4994582;27;45890;-71
2022/03/25 04:10:14;;;;;;;;;53.75;40.25;;;;;15.76;29.91;102231.09;4994845;27;45395;-71
2022/03/25 04:12:43;;;;;;;;;56.75;38.25;;;;;15.57;29.91;102195.75;4994705;27;45414;-72
2022/03/25 04:15:12;;;;;;;;;56.00;41.00;;;;;15.71;29.95;102214.31;4976758;28;46027;-72
2022/03/25 04:17:43;;;;;;;;;51.75;41.25;;;;;15.68;29.92;102231.00;4993980;27;45547;-71
2022/03/25 04:20:13;;;;;;;;;53.75;39.75;;;;;15.40;30.35;102188.63;4994374;27;45553;-72
2022/03/25 04:22:38;;;;;;;;;51.00;38.50;;;;;15.61;30.24;102235.38;4994207;27;45406;-71
2022/03/25 04:25:07;;;;;;;;;56.75;43.50;;;;;15.47;30.51;102213.28;4994012;27;45409;-70
2022/03/25 04:27:34;;;;;;;;;51.50;42.50;;;;;15.26;30.31;102188.53;4994516;27;45402;-74
2022/03/25 04:29:59;;;;;;;;;55.75;41.25;;;;;15.49;30.81;102237.94;4994512;27;45477;-71
2022/03/25 04:32:28;;;;;;;;;53.50;41.50;;;;;15.43;30.53;102240.56;4994270;27;45445;-72
2022/03/25 04:34:53;;;;;;;;;50.50;37.50;;;;;15.36;30.46;102223.78;4976352;27;47594;-71
2022/03/25 04:37:19;;;;;;;;;50.75;39.75;;;;;15.42;30.81;102234.41;4994104;27;45160;-71
2022/03/25 04:39:48;;;;;;;;;52.50;39.50;;;;;15.31;30.82;102212.31;4994060;27;45236;-71
2022/03/25 04:42:14;;;;;;;;;51.25;39.75;;;;;15.45;30.82;102230.91;4994393;27;45335;-71
2022/03/25 04:44:45;;;;;;;;;41.00;32.25;;;;;15.38;30.97;102215.91;4976131;28;46841;-71
2022/03/25 04:47:11;;;;;;;;;48.00;36.25;;;;;15.13;31.18;102167.34;4994096;27;45488;-71
2022/03/25 04:49:45;;;;;;;;;56.75;41.75;;;;;15.52;31.04;102237.97;4994162;27;45426;-73
2022/03/25 04:52:11;;;;;;;;;48.25;37.50;;;;;15.54;30.75;102241.50;4994455;27;45458;-72
2022/03/25 04:54:36;;;;;;;;;54.25;40.75;;;;;15.35;31.37;102208.84;4976250;27;47810;-71
2022/03/25 04:57:03;;;;;;;;;55.75;42.25;;;;;15.48;31.35;102247.63;4994376;27;45464;-71
2022/03/25 04:59:28;;;;;;;;;56.75;41.50;;;;;15.48;31.36;102247.63;4994091;27;45319;-70
2022/03/25 05:01:58;;;;;;;;;51.75;39.50;;;;;15.23;31.04;102212.28;4993912;27;45457;-71
2022/03/25 05:04:24;;;;;;;;;53.25;40.25;;;;;15.27;31.21;102224.59;4993817;27;45343;-69
2022/03/25 05:06:50;;;;;;;;;52.75;40.00;;;;;15.45;31.44;102254.66;4993628;28;45326;-71
2022/03/25 05:09:24;;;;;;;;;46.50;36.25;;;;;15.23;31.28;102225.47;4993729;27;45797;-72
2022/03/25 05:11:50;;;;;;;;;52.75;39.75;;;;;15.39;31.22;102244.03;4993946;27;45520;-70
2022/03/25 05:14:21;;;;;;;;;47.50;39.25;;;;;15.25;31.49;102217.56;4993889;27;46050;-71
2022/03/25 05:16:52;;;;;;;;;54.00;41.00;;;;;15.48;31.72;102262.59;4994349;27;45484;-71
2022/03/25 05:19:20;;;;;;;;;56.25;39.25;;;;;15.48;31.21;102260.81;4993854;27;45330;-73
2022/03/25 05:21:49;;;;;;;;;54.50;41.25;;;;;15.48;31.48;102260.81;4993965;28;45481;-72
2022/03/25 05:24:15;;;;;;;;;57.25;41.50;;;;;15.39;31.49;102249.31;4993351;27;45240;-68
2022/03/25 05:26:41;;;;;;;;;59.00;41.75;;;;;15.22;31.82;102225.47;4993430;27;45276;-73
2022/03/25 05:29:07;;;;;;;;;56.25;42.50;;;;;15.46;31.81;102262.56;4993838;27;45340;-73
2022/03/25 05:31:34;;;;;;;;;51.75;40.25;;;;;15.40;31.85;102246.72;4993649;27;46170;-70
2022/03/25 05:34:00;;;;;;;;;51.50;38.75;;;;;15.44;31.81;102250.22;4993990;27;45493;-72
2022/03/25 05:36:26;;;;;;;;;59.00;40.75;;;;;15.44;31.93;102259.03;4996479;27;45376;-72
2022/03/25 05:38:52;;;;;;;;;53.50;40.00;;;;;15.42;31.49;102255.53;4996697;27;45474;-71
2022/03/25 05:41:21;;;;;;;;;51.50;38.00;;;;;15.35;32.18;102252.81;4979239;28;45481;-71
2022/03/25 05:43:46;;;;;;;;;54.75;40.00;;;;;15.27;32.05;102234.28;4996637;27;46552;-70
2022/03/25 05:46:13;;;;;;;;;51.50;43.00;;;;;15.44;32.13;102263.44;4996580;27;45287;-69
2022/03/25 05:48:40;;;;;;;;;51.25;40.75;;;;;15.16;32.08;102225.41;4996519;27;45385;-71
2022/03/25 05:51:06;;;;;;;;;44.25;35.25;;;;;15.44;31.92;102266.06;4997014;27;45375;-68
2022/03/25 05:53:32;;;;;;;;;47.25;38.00;;;;;15.33;32.02;102241.34;4997894;27;46344;-69
2022/03/25 05:55:59;;;;;;;;;43.75;33.50;;;;;15.42;31.78;102260.81;4981071;28;45824;-68
2022/03/25 05:58:29;;;;;;;;;49.25;41.25;;;;;15.35;32.15;102253.72;4980312;28;45349;-71
2022/03/25 06:00:54;;;;;;;;;54.25;40.75;;;;;15.43;32.09;102269.59;4998213;27;45558;-71
2022/03/25 06:03:20;;;;;;;;;59.75;40.75;;;;;15.43;32.35;102266.97;4998881;27;45471;-69
2022/03/25 06:05:45;;;;;;;;;54.50;42.75;;;;;15.39;32.00;102265.16;4997154;27;45456;-67
2022/03/25 06:08:11;;;;;;;;;55.00;41.50;;;;;15.44;31.98;102276.63;4997101;27;45283;-69
2022/03/25 06:10:49;;;;;;;;;48.25;39.75;;;;;15.36;32.24;102266.03;4999015;27;45573;-72
2022/03/25 06:13:14;;;;;;;;;54.50;42.25;;;;;15.47;32.24;102272.28;4981487;27;47723;-70
2022/03/25 06:15:40;;;;;;;;;54.50;43.00;;;;;15.48;32.03;102279.31;4999111;27;45610;-67
2022/03/25 06:18:05;;;;;;;;;56.75;43.50;;;;;15.40;32.39;102259.91;4981265;27;45419;-72
2022/03/25 06:20:35;;;;;;;;;56.25;40.00;;;;;15.53;32.04;102289.91;4998797;27;45639;-72
2022/03/25 06:23:01;;;;;;;;;54.25;40.25;;;;;15.44;31.78;102274.00;4981334;28;46758;-69
2022/03/25 06:25:31;;;;;;;;;53.00;40.75;;;;;15.37;32.33;102251.06;4998661;27;45460;-71
2022/03/25 06:28:04;;;;;;;;;57.75;42.50;;;;;15.47;32.36;102271.38;4998656;28;45495;-72
2022/03/25 06:30:34;;;;;;;;;54.00;42.75;;;;;15.51;32.14;102275.78;4998811;27;45243;-73
2022/03/25 06:33:00;;;;;;;;;54.00;41.00;;;;;15.12;32.10;102191.97;4999839;27;45320;-71
2022/03/25 06:35:26;;;;;;;;;53.75;40.25;;;;;15.31;32.46;102232.56;4980508;27;45457;-72
2022/03/25 06:37:52;;;;;;;;;52.75;41.50;;;;;15.63;32.48;102283.78;4997228;27;45293;-73
2022/03/25 06:40:19;;;;;;;;;56.50;42.25;;;;;15.65;32.98;102289.97;4997784;27;45433;-71
2022/03/25 06:42:47;;;;;;;;;58.75;44.25;;;;;15.74;32.56;102290.94;4996772;28;46242;-71
2022/03/25 06:45:15;;;;;;;;;51.25;41.75;;;;;15.85;32.44;102310.34;4979421;27;45511;-71
2022/03/25 06:47:42;;;;;;;;;52.75;40.00;;;;;15.89;32.27;102310.38;4980071;27;45500;-72
2022/03/25 06:50:10;;;;;;;;;50.50;39.50;;;;;15.93;32.22;102305.13;4979690;28;45256;-72
2022/03/25 06:52:38;;;;;;;;;47.75;38.50;;;;;15.98;32.02;102306.91;4996535;27;45946;-71
2022/03/25 06:55:05;;;;;;;;;54.00;40.50;;;;;15.98;32.10;102301.63;4996770;28;45338;-72
2022/03/25 06:57:35;;;;;;;;;56.75;44.25;;;;;15.97;31.96;102294.59;4996387;28;45436;-71
2022/03/25 07:00:01;;;;;;;;;59.50;43.75;;;;;15.99;31.53;102292.84;4996978;27;45512;-72
2022/03/25 07:02:26;;;;;;;;;56.25;39.75;;;;;16.15;31.51;102312.25;4996793;27;45259;-71
2022/03/25 07:04:52;;;;;;;;;54.75;41.75;;;;;16.14;31.72;102299.06;4979305;28;45883;-71
2022/03/25 07:07:21;;;;;;;;;54.50;42.25;;;;;16.23;31.89;102309.66;4997078;28;45509;-70
2022/03/25 07:09:47;;;;;;;;;58.00;43.50;;;;;16.05;31.71;102268.19;4996579;27;45522;-72
2022/03/25 07:12:16;;;;;;;;;56.50;43.25;;;;;16.19;31.69;102281.44;4981322;28;47621;-73
2022/03/25 07:14:42;;;;;;;;;52.75;40.50;;;;;16.38;31.63;102306.19;4999001;27;45524;-72
2022/03/25 07:17:09;;;;;;;;;57.25;42.25;;;;;16.18;31.94;102256.75;4998862;28;45475;-73
2022/03/25 07:19:34;;;;;;;;;53.25;41.50;;;;;16.53;31.53;102322.97;4998068;27;45460;-72
2022/03/25 07:22:00;;;;;;;;;55.00;42.25;;;;;16.49;31.35;102307.97;4996708;27;45978;-70
2022/03/25 07:24:25;;;;;;;;;55.25;42.50;;;;;15.87;31.14;102201.19;4997106;27;45441;-72
2022/03/25 07:26:51;;;;;;;;;54.25;41.50;;;;;16.67;31.21;102324.78;4996489;27;45255;-69
2022/03/25 07:29:18;;;;;;;;;59.25;43.75;;;;;16.66;30.92;102312.44;4995897;27;45388;-71
2022/03/25 07:31:44;;;;;;;;;55.00;40.75;;;;;16.79;31.12;102338.03;4995211;27;45695;-70
2022/03/25 07:34:13;;;;;;;;;58.25;45.50;;;;;16.80;31.77;102339.84;4977998;28;45363;-71
2022/03/25 07:36:38;;;;;;;;;63.50;46.50;;;;;16.04;31.26;102209.16;4995940;27;45456;-72
2022/03/25 07:39:05;;;;;;;;;58.50;45.25;;;;;16.02;31.57;102213.56;4998081;28;45747;-74
2022/03/25 07:41:34;;;;;;;;;57.25;44.00;;;;;16.67;31.17;102319.47;4978888;27;47305;-70
2022/03/25 07:44:00;;;;;;;;;59.75;44.25;;;;;16.86;31.09;102345.13;4996692;27;45416;-70
2022/03/25 07:46:28;;;;;;;;;54.75;43.50;;;;;16.92;31.16;102349.56;4996455;27;45231;-71
2022/03/25 07:48:55;;;;;;;;;57.50;44.25;;;;;16.66;30.49;102317.72;4995087;27;45509;-72
2022/03/25 07:51:20;;;;;;;;;59.25;44.00;;;;;16.79;30.40;102348.63;4994854;27;46289;-71
2022/03/25 07:53:46;;;;;;;;;53.00;40.75;;;;;16.63;30.88;102315.06;4995446;27;45537;-69
2022/03/25 07:56:14;;;;;;;;;57.00;42.25;;;;;16.79;30.87;102331.88;4995762;27;46092;-72
2022/03/25 07:58:41;;;;;;;;;53.50;42.25;;;;;16.95;30.61;102350.44;4996248;27;45243;-72
2022/03/25 08:01:12;;;;;;;;;59.75;43.75;;;;;17.04;30.02;102359.28;4995542;27;45425;-73
2022/03/25 08:03:38;;;;;;;;;53.75;43.00;;;;;16.87;30.63;102330.09;4995659;27;45247;-72
2022/03/25 08:06:03;;;;;;;;;56.75;45.25;;;;;17.03;30.25;102353.06;4994914;27;45227;-72
2022/03/25 08:08:29;;;;;;;;;62.00;46.00;;;;;16.99;30.01;102346.03;4995285;27;45403;-74
2022/03/25 08:10:56;;;;;;;;;54.75;43.25;;;;;17.08;30.06;102353.06;4994765;27;45917;-71
2022/03/25 08:13:30;;;;;;;;;59.75;44.00;;;;;16.96;29.79;102338.06;4994973;27;45205;-73
2022/03/25 08:15:56;;;;;;;;;60.00;45.00;;;;;16.94;29.81;102323.94;4977472;28;45314;-73
2022/03/25 08:18:22;;;;;;;;;59.25;42.50;;;;;17.15;29.53;102347.78;4977533;27;45440;-72
2022/03/25 08:20:53;;;;;;;;;57.00;45.25;;;;;17.22;29.17;102343.38;4977253;28;46155;-71
2022/03/25 08:28:57;;;;;;;;;61.50;45.25;;;;;17.56;28.99;102360.16;4995719;27;45468;-72
2022/03/25 08:31:24;;;;;;;;;67.25;50.00;;;;;17.15;28.65;102299.25;4977297;28;46765;-73
2022/03/25 08:33:53;;;;;;;;;63.25;44.00;;;;;17.40;28.72;102346.91;4976782;28;45342;-69
2022/03/25 08:36:19;;;;;;;;;58.25;43.50;;;;;17.12;29.01;102289.53;4994898;28;45355;-74
2022/03/25 08:38:45;;;;;;;;;55.25;43.50;;;;;17.56;28.85;102348.69;4995233;27;45383;-71
2022/03/25 08:41:11;;;;;;;;;61.50;46.75;;;;;17.54;28.63;102350.44;4994269;27;45421;-72
2022/03/25 08:43:38;;;;;;;;;53.50;40.50;;;;;17.49;28.58;102360.16;4976484;28;45448;-72
2022/03/25 08:46:07;;;;;;;;;60.00;45.00;;;;;17.51;28.58;102356.63;4994274;27;45304;-74
2022/03/25 08:48:33;;;;;;;;;56.50;44.25;;;;;17.61;28.48;102357.50;4994464;27;45414;-73
2022/03/25 08:50:59;;;;;;;;;62.25;46.75;;;;;17.70;28.21;102359.22;4976781;27;45469;-75
2022/03/25 08:53:24;;;;;;;;;65.50;48.50;;;;;17.71;27.85;102358.34;4994056;27;45366;-73
2022/03/25 08:55:51;;;;;;;;;56.50;44.00;;;;;17.72;28.03;102358.34;4994131;27;45480;-74
2022/03/25 08:58:17;;;;;;;;;68.00;50.50;;;;;17.69;27.81;102358.34;4994676;27;45462;-70
2022/03/25 09:00:43;;;;;;;;;61.50;47.25;;;;;17.66;27.98;102361.00;4993893;27;45906;-69
2022/03/25 09:03:09;;;;;;;;;63.00;46.50;;;;;17.51;28.44;102340.72;4993624;27;45495;-74
2022/03/25 09:05:38;;;;;;;;;66.50;47.50;;;;;17.64;28.21;102361.91;4993857;27;45359;-72
2022/03/25 09:08:05;;;;;;;;;64.25;46.25;;;;;17.55;28.08;102333.66;4977045;28;45334;-72
2022/03/25 09:10:30;;;;;;;;;60.75;46.50;;;;;17.48;28.63;102308.06;4996615;27;45376;-70
2022/03/25 09:12:56;;;;;;;;;60.50;45.25;;;;;17.76;28.21;102332.72;4996771;27;45346;-72
2022/03/25 09:15:28;;;;;;;;;59.75;43.50;;;;;18.05;27.83;102359.16;4979260;28;45310;-71
2022/03/25 09:17:54;;;;;;;;;64.25;48.75;;;;;18.03;27.82;102345.03;4997775;27;45394;-71
2022/03/25 09:20:19;;;;;;;;;68.00;49.75;;;;;18.20;27.48;102360.91;4997475;27;45411;-70
2022/03/25 09:22:45;;;;;;;;;64.75;48.50;;;;;18.23;27.71;102366.19;4996687;27;45410;-71
2022/03/25 09:25:12;;;;;;;;;66.00;47.50;;;;;18.31;27.88;102347.59;4996543;27;45340;-74
2022/03/25 09:27:39;;;;;;;;;62.50;47.25;;;;;18.45;27.18;102361.66;4997180;27;45383;-72
2022/03/25 09:30:06;;;;;;;;;66.00;51.50;;;;;18.26;27.45;102328.16;4996581;27;45508;-70
2022/03/25 09:32:41;;;;;;;;;68.00;50.50;;;;;18.34;27.45;102336.97;4979371;27;45382;-73
2022/03/25 09:35:11;;;;;;;;;63.75;47.75;;;;;18.50;27.74;102353.69;4979501;27;45433;-72
2022/03/25 09:37:53;;;;;;;;;70.00;51.25;;;;;18.57;27.20;102353.63;4996857;27;45464;-71
2022/03/25 09:40:22;;;;;;;;;66.75;49.75;;;;;18.56;26.79;102348.38;4996818;27;45439;-71
2022/03/25 09:42:59;;;;;;;;;67.50;46.75;;;;;18.60;27.24;102340.38;4979272;27;45654;-73
2022/03/25 09:45:35;;;;;;;;;61.25;46.25;;;;;18.70;27.10;102330.59;4978661;28;45469;-73
2022/03/25 09:48:01;;;;;;;;;64.25;48.75;;;;;18.93;26.62;102342.84;4996522;27;45231;-68
2022/03/25 09:50:33;;;;;;;;;63.50;48.25;;;;;19.04;26.71;102347.19;4996444;27;46289;-71
2022/03/25 09:52:59;;;;;;;;;68.25;49.00;;;;;18.80;26.13;102281.00;4996202;27;45396;-73
2022/03/25 09:55:28;;;;;;;;;65.50;49.25;;;;;19.15;25.72;102355.06;4996541;27;45185;-72
2022/03/25 09:57:54;;;;;;;;;68.00;50.75;;;;;19.10;25.66;102343.63;4996516;27;45394;-71
2022/03/25 10:00:20;;;;;;;;;67.50;49.75;;;;;19.02;25.83;102354.25;4978941;27;47548;-72
2022/03/25 10:02:46;;;;;;;;;72.75;53.25;;;;;18.98;25.82;102349.91;4996530;27;45433;-70
2022/03/25 10:05:17;;;;;;;;;72.00;53.75;;;;;18.59;25.65;102285.53;4997535;27;45374;-73
2022/03/25 10:07:50;;;;;;;;;68.75;51.75;;;;;18.87;25.62;102343.78;4999148;27;45419;-72
2022/03/25 10:10:25;;;;;;;;;68.75;53.00;;;;;18.84;25.69;102349.13;4996142;27;45288;-71
2022/03/25 10:13:02;;;;;;;;;72.00;53.00;;;;;18.44;25.95;102259.97;4996326;27;45266;-73
2022/03/25 10:15:29;;;;;;;;;67.75;51.50;;;;;18.92;25.91;102319.84;4996219;27;45489;-73
2022/03/25 10:18:01;;;;;;;;;69.25;50.75;;;;;19.14;26.33;102331.16;4978595;27;45580;-71
2022/03/25 10:20:31;;;;;;;;;65.00;50.75;;;;;19.23;25.58;102320.47;4995350;27;45450;-72
2022/03/25 10:23:17;;;;;;;;;67.75;50.25;;;;;19.39;25.70;102323.88;4978414;28;45437;-73
2022/03/25 10:25:55;;;;;;;;;68.00;50.50;;;;;19.66;25.26;102334.22;4995901;27;45473;-71
2022/03/25 10:28:30;;;;;;;;;65.00;47.50;;;;;19.83;25.19;102325.22;4996218;27;45346;-71
2022/03/25 10:31:05;;;;;;;;;58.50;47.00;;;;;19.95;27.16;102317.09;4995770;27;45591;-71
2022/03/25 10:33:49;;;;;;;;;57.00;45.25;;;;;20.28;26.67;102329.09;4995618;27;45388;-71
2022/03/25 10:36:25;;;;;;;;;66.50;50.25;;;;;20.33;24.71;102329.94;4977994;28;45311;-71
2022/03/25 10:39:04;;;;;;;;;72.00;53.50;;;;;20.33;24.37;102335.25;4996227;27;45412;-71
2022/03/25 10:41:41;;;;;;;;;68.75;50.50;;;;;20.30;25.44;102318.44;4995674;27;45777;-70
2022/03/25 10:44:09;;;;;;;;;66.25;49.75;;;;;20.50;25.04;102323.47;4995457;27;45440;-69
2022/03/25 10:46:40;;;;;;;;;64.25;49.00;;;;;20.65;25.38;102328.63;4995639;27;45433;-69
2022/03/25 10:49:11;;;;;;;;;63.50;46.75;;;;;20.79;26.12;102317.75;4978602;28;45498;-67
2022/03/25 10:51:42;;;;;;;;;60.50;46.00;;;;;21.00;25.36;102316.56;4995380;27;45444;-68
2022/03/25 10:54:10;;;;;;;;;63.75;47.75;;;;;21.24;24.02;102328.56;4995402;27;45577;-67
2022/03/25 10:56:44;;;;;;;;;59.00;47.75;;;;;21.38;23.92;102315.00;4995427;27;45516;-68
2022/03/25 10:59:20;;;;;;;;;70.25;51.25;;;;;21.46;23.54;102325.56;4995622;28;45309;-70
2022/03/25 11:01:51;;;;;;;;;70.00;50.50;;;;;21.43;23.01;102309.59;4995456;27;45987;-68
2022/03/25 11:04:18;;;;;;;;;64.75;50.25;;;;;21.28;23.34;102292.06;4995120;27;45397;-71
2022/03/25 11:06:48;;;;;;;;;66.00;50.25;;;;;21.60;23.50;102315.50;4995512;27;45223;-68
2022/03/25 11:09:15;;;;;;;;;64.25;50.25;;;;;21.88;23.39;102323.88;4995608;27;45507;-69
2022/03/25 11:11:48;;;;;;;;;70.25;53.00;;;;;21.94;22.43;102301.50;4995121;27;46199;-69
2022/03/25 11:14:14;;;;;;;;;75.00;53.75;;;;;21.86;22.42;102325.69;4977432;27;45538;-70
2022/03/25 11:16:44;;;;;;;;;0.25;0.25;;;;;21.80;22.72;102321.31;4995430;27;45397;-70